createdAt,value
2018-09-20T00:02:09.824Z,9.02
2018-09-20T00:04:44.276Z,13.95
2018-09-20T00:07:17.436Z,13.27
2018-09-20T00:09:52.335Z,11.80
2018-09-20T00:12:24.858Z,14.60
2018-09-20T00:15:00.540Z,15.87
2018-09-20T00:17:35.536Z,14.87
2018-09-20T00:20:09.768Z,19.70
2018-09-20T00:22:44.429Z,14.93
2018-09-20T00:25:17.848Z,14.37
2018-09-20T00:27:50.565Z,16.13
2018-09-20T00:30:23.317Z,20.13
2018-09-20T00:32:56.886Z,14.83
2018-09-20T00:35:31.024Z,18.57
2018-09-20T00:38:04.156Z,8.37
2018-09-20T00:40:36.837Z,10.57
2018-09-20T00:43:11.047Z,13.57
2018-09-20T00:45:44.158Z,17.00
2018-09-20T00:48:16.645Z,18.73
2018-09-20T00:50:49.251Z,11.83
2018-09-20T00:53:23.024Z,15.17
2018-09-20T00:55:55.717Z,14.53
2018-09-20T00:58:29.814Z,17.13
2018-09-20T01:01:02.993Z,13.33
2018-09-20T01:03:35.461Z,17.57
2018-09-20T01:06:09.396Z,15.23
2018-09-20T01:08:42.174Z,15.43
2018-09-20T01:11:14.883Z,10.00
2018-09-20T01:13:48.184Z,18.50
2018-09-20T01:16:43.352Z,10.50
2018-09-20T01:19:15.716Z,13.10
2018-09-20T01:21:49.012Z,15.43
2018-09-20T01:24:24.640Z,14.60
2018-09-20T01:26:57.824Z,15.60
2018-09-20T01:29:30.165Z,16.77
2018-09-20T01:32:03.963Z,14.77
2018-09-20T01:34:36.320Z,17.30
2018-09-20T01:37:08.792Z,19.03
2018-09-20T01:39:41.421Z,17.17
2018-09-20T01:42:14.148Z,15.60
2018-09-20T01:44:46.987Z,17.40
2018-09-20T01:47:21.814Z,16.13
2018-09-20T01:53:06.540Z,15.43
2018-09-20T01:55:39.020Z,15.67
2018-09-20T01:58:11.592Z,15.10
2018-09-20T02:00:44.416Z,14.80
2018-09-20T02:03:18.425Z,18.30
2018-09-20T02:05:50.993Z,18.90
2018-09-20T02:08:25.259Z,14.20
2018-09-20T02:10:57.801Z,15.07
2018-09-20T02:13:31.182Z,13.50
2018-09-20T02:16:04.219Z,13.73
2018-09-20T02:18:37.161Z,15.67
2018-09-20T02:21:09.697Z,16.27
2018-09-20T02:23:42.732Z,14.07
2018-09-20T02:26:15.509Z,11.73
2018-09-20T02:28:49.024Z,10.63
2018-09-20T02:31:23.613Z,11.87
2018-09-20T02:33:56.278Z,12.23
2018-09-20T02:36:28.932Z,18.97
2018-09-20T02:39:02.648Z,17.17
2018-09-20T02:41:36.551Z,13.88
2018-09-20T02:44:09.060Z,14.47
2018-09-20T02:46:41.806Z,17.23
2018-09-20T02:49:14.413Z,18.10
2018-09-20T02:51:47.052Z,20.50
2018-09-20T02:54:23.008Z,13.75
2018-09-20T02:56:55.660Z,15.77
2018-09-20T02:59:29.176Z,12.88
2018-09-20T03:02:03.823Z,17.97
2018-09-20T03:04:36.913Z,15.60
2018-09-20T03:07:09.658Z,12.50
2018-09-20T03:09:42.613Z,13.83
2018-09-20T03:12:15.221Z,12.07
2018-09-20T03:14:47.713Z,15.50
2018-09-20T03:17:20.808Z,13.27
2018-09-20T03:19:53.884Z,13.13
2018-09-20T03:22:26.570Z,12.95
2018-09-20T03:24:59.581Z,12.67
2018-09-20T03:27:32.129Z,13.97
2018-09-20T03:30:06.238Z,17.70
2018-09-20T03:32:40.144Z,15.07
2018-09-20T03:35:13.322Z,16.83
2018-09-20T03:37:45.888Z,13.37
2018-09-20T03:40:20.448Z,16.10
2018-09-20T03:42:56.930Z,14.00
2018-09-20T03:45:32.466Z,14.23
2018-09-20T03:48:06.142Z,15.37
2018-09-20T03:50:38.911Z,13.87
2018-09-20T03:53:11.644Z,15.40
2018-09-20T03:55:44.388Z,9.43
2018-09-20T03:58:16.968Z,15.40
2018-09-20T04:00:54.008Z,16.27
2018-09-20T04:03:27.617Z,15.67
2018-09-20T04:06:00.018Z,13.53
2018-09-20T04:08:35.739Z,16.47
2018-09-20T04:11:08.440Z,14.00
2018-09-20T04:13:42.699Z,16.70
2018-09-20T04:16:16.336Z,17.50
2018-09-20T04:18:49.059Z,12.63
2018-09-20T04:21:33.289Z,15.97
2018-09-20T04:24:06.933Z,16.10
2018-09-20T04:26:40.100Z,16.17
2018-09-20T04:29:13.665Z,17.80
2018-09-20T04:31:46.953Z,13.63
2018-09-20T04:34:21.448Z,16.02
2018-09-20T04:36:55.336Z,16.48
2018-09-20T04:39:28.814Z,13.67
2018-09-20T04:42:01.517Z,16.43
2018-09-20T04:44:34.084Z,23.67
2018-09-20T04:47:08.330Z,18.67
2018-09-20T04:49:40.865Z,17.27
2018-09-20T04:52:14.409Z,14.27
2018-09-20T04:54:47.444Z,12.87
2018-09-20T04:57:20.006Z,14.40
2018-09-20T04:59:55.614Z,15.37
2018-09-20T05:02:28.497Z,18.07
2018-09-20T05:05:01.257Z,13.40
2018-09-20T05:07:34.328Z,14.47
2018-09-20T05:10:10.313Z,13.02
2018-09-20T05:12:42.889Z,16.08
2018-09-20T05:15:16.636Z,15.67
2018-09-20T05:17:51.553Z,16.43
2018-09-20T05:20:25.096Z,13.40
2018-09-20T05:23:00.190Z,17.07
2018-09-20T05:25:33.967Z,16.47
2018-09-20T05:28:07.058Z,14.73
2018-09-20T05:30:42.644Z,16.60
2018-09-20T05:33:16.633Z,13.70
2018-09-20T05:35:49.786Z,14.10
2018-09-20T05:38:22.820Z,16.47
2018-09-20T05:40:57.285Z,16.10
2018-09-20T05:43:30.055Z,15.47
2018-09-20T05:46:03.145Z,17.57
2018-09-20T05:48:36.844Z,14.77
2018-09-20T05:51:09.605Z,12.60
2018-09-20T05:53:43.623Z,15.17
2018-09-20T05:56:16.092Z,15.83
2018-09-20T05:58:48.981Z,18.03
2018-09-20T06:01:21.676Z,18.70
2018-09-20T06:03:54.856Z,14.93
2018-09-20T06:06:27.720Z,17.97
2018-09-20T06:09:01.707Z,17.17
2018-09-20T06:11:34.936Z,11.60
2018-09-20T06:14:09.095Z,12.87
2018-09-20T06:16:43.403Z,14.63
2018-09-20T06:19:15.885Z,13.03
2018-09-20T06:21:48.512Z,20.20
2018-09-20T06:24:21.404Z,15.77
2018-09-20T06:26:55.024Z,16.80
2018-09-20T06:29:28.894Z,17.33
2018-09-20T06:32:01.552Z,13.70
2018-09-20T06:34:35.718Z,14.17
2018-09-20T06:37:08.264Z,16.23
2018-09-20T06:39:43.756Z,17.07
2018-09-20T06:42:16.265Z,17.10
2018-09-20T06:44:49.372Z,13.07
2018-09-20T06:47:24.155Z,13.80
2018-09-20T06:49:59.224Z,13.40
2018-09-20T06:52:31.780Z,12.90
2018-09-20T06:55:05.105Z,13.53
2018-09-20T06:57:37.781Z,13.37
2018-09-20T07:00:10.583Z,15.27
2018-09-20T07:02:44.242Z,16.07
2018-09-20T07:05:16.867Z,21.13
2018-09-20T07:07:50.317Z,13.43
2018-09-20T07:10:26.129Z,17.17
2018-09-20T07:12:59.700Z,18.27
2018-09-20T07:15:34.926Z,13.83
2018-09-20T07:18:07.696Z,13.73
2018-09-20T07:20:41.177Z,11.40
2018-09-20T07:23:15.823Z,16.00
2018-09-20T07:25:50.149Z,15.77
2018-09-20T07:28:24.224Z,14.40
2018-09-20T07:30:57.731Z,17.33
2018-09-20T07:33:34.272Z,14.90
2018-09-20T07:36:08.995Z,15.13
2018-09-20T07:38:42.068Z,12.37
2018-09-20T07:41:17.381Z,13.97
2018-09-20T07:43:51.611Z,14.83
2018-09-20T07:46:33.569Z,12.20
2018-09-20T07:49:07.635Z,18.67
2018-09-20T07:51:41.344Z,13.10
2018-09-20T07:54:14.010Z,18.53
2018-09-20T07:56:46.814Z,17.67
2018-09-20T07:59:19.885Z,14.33
2018-09-20T08:01:52.490Z,17.13
2018-09-20T08:04:25.715Z,17.67
2018-09-20T08:06:58.529Z,16.80
2018-09-20T08:09:31.245Z,15.20
2018-09-20T08:12:04.254Z,14.70
2018-09-20T08:14:41.821Z,11.43
2018-09-20T08:17:17.703Z,12.33
2018-09-20T08:19:53.764Z,15.40
2018-09-20T08:22:26.464Z,17.93
2018-09-20T08:25:01.695Z,14.87
2018-09-20T08:27:36.456Z,12.73
2018-09-20T08:30:09.093Z,16.33
2018-09-20T08:32:43.685Z,15.63
2018-09-20T08:35:17.298Z,16.47
2018-09-20T08:37:51.049Z,14.15
2018-09-20T08:40:26.688Z,12.37
2018-09-20T08:43:01.308Z,12.17
2018-09-20T08:45:36.701Z,13.90
2018-09-20T08:48:09.937Z,18.23
2018-09-20T08:50:42.388Z,13.07
2018-09-20T08:53:15.056Z,12.27
2018-09-20T08:55:54.824Z,15.20
2018-09-20T08:58:31.352Z,13.40
2018-09-20T09:01:04.520Z,10.87
2018-09-20T09:03:41.020Z,16.65
2018-09-20T09:06:14.348Z,12.60
2018-09-20T09:08:47.566Z,20.37
2018-09-20T09:11:22.993Z,14.67
2018-09-20T09:13:56.946Z,10.90
2018-09-20T09:16:30.322Z,12.47
2018-09-20T09:19:03.483Z,19.40
2018-09-20T09:21:37.480Z,13.88
2018-09-20T09:24:11.017Z,8.03
2018-09-20T09:26:44.677Z,10.40
2018-09-20T09:29:26.596Z,15.77
2018-09-20T09:31:59.152Z,10.60
2018-09-20T09:34:33.838Z,9.13
2018-09-20T09:37:06.164Z,14.23
2018-09-20T09:39:38.777Z,12.13
2018-09-20T09:42:15.900Z,11.60
2018-09-20T09:44:48.404Z,10.00
2018-09-20T09:47:20.972Z,12.97
2018-09-20T09:49:53.548Z,10.27
2018-09-20T09:52:26.201Z,13.10
2018-09-20T09:55:07.033Z,10.73
2018-09-20T09:57:40.983Z,13.90
2018-09-20T10:00:42.753Z,10.17
2018-09-20T10:03:18.462Z,11.73
2018-09-20T10:05:53.899Z,15.23
2018-09-20T10:08:26.897Z,10.20
2018-09-20T10:11:00.069Z,13.33
2018-09-20T10:13:33.115Z,10.43
2018-09-20T10:16:07.460Z,12.20
2018-09-20T10:18:43.933Z,8.43
2018-09-20T10:21:18.188Z,12.97
2018-09-20T10:23:54.145Z,10.38
2018-09-20T10:26:28.386Z,13.67
2018-09-20T10:29:02.858Z,10.00
2018-09-20T10:31:37.445Z,9.77
2018-09-20T10:34:10.174Z,10.87
2018-09-20T10:36:43.397Z,10.53
2018-09-20T10:39:16.383Z,11.00
2018-09-20T10:41:51.518Z,10.48
2018-09-20T10:44:32.901Z,9.93
2018-09-20T10:47:07.125Z,12.13
2018-09-20T10:49:41.224Z,8.00
2018-09-20T10:52:15.904Z,10.18
2018-09-20T10:54:54.606Z,11.67
2018-09-20T10:57:28.333Z,5.90
2018-09-20T11:00:03.956Z,10.10
2018-09-20T11:02:37.642Z,14.50
2018-09-20T11:05:11.443Z,11.20
2018-09-20T11:07:46.892Z,13.37
2018-09-20T11:10:19.801Z,9.03
2018-09-20T11:12:53.055Z,7.93
2018-09-20T11:15:30.066Z,6.83
2018-09-20T11:18:02.790Z,7.47
2018-09-20T11:20:35.350Z,9.03
2018-09-20T11:23:10.743Z,9.68
2018-09-20T11:25:43.930Z,10.03
2018-09-20T11:28:17.029Z,8.73
2018-09-20T11:30:50.041Z,8.93
2018-09-20T11:33:23.818Z,9.73
2018-09-20T11:35:57.129Z,9.20
2018-09-20T11:38:32.516Z,10.10
2018-09-20T11:41:05.037Z,8.77
2018-09-20T11:43:38.670Z,5.67
2018-09-20T11:46:12.777Z,7.33
2018-09-20T11:48:46.052Z,5.10
2018-09-20T11:51:19.996Z,8.20
2018-09-20T11:53:54.850Z,6.70
2018-09-20T11:56:27.772Z,7.93
2018-09-20T11:59:00.519Z,6.87
2018-09-20T12:01:34.732Z,7.70
2018-09-20T12:04:07.472Z,8.77
2018-09-20T12:06:40.217Z,8.63
2018-09-20T12:09:16.649Z,16.53
2018-09-20T12:11:49.510Z,8.97
2018-09-20T12:14:26.011Z,7.27
2018-09-20T12:16:58.821Z,11.20
2018-09-20T12:19:32.647Z,8.53
2018-09-20T12:22:12.092Z,8.37
2018-09-20T12:24:49.544Z,7.07
2018-09-20T12:27:24.535Z,6.33
2018-09-20T12:30:00.455Z,6.67
2018-09-20T12:32:35.590Z,7.93
2018-09-20T12:35:11.577Z,7.53
2018-09-20T12:37:55.763Z,10.33
2018-09-20T12:40:40.164Z,6.63
2018-09-20T12:43:18.046Z,6.57
2018-09-20T12:45:57.713Z,7.13
2018-09-20T12:48:38.008Z,7.97
2018-09-20T12:51:18.816Z,11.30
2018-09-20T12:54:01.120Z,6.87
2018-09-20T12:56:39.663Z,10.05
2018-09-20T12:59:25.576Z,6.10
2018-09-20T13:01:58.775Z,11.07
2018-09-20T13:04:32.508Z,8.47
2018-09-20T13:07:21.212Z,6.37
2018-09-20T13:10:16.470Z,8.73
2018-09-20T13:12:50.099Z,7.03
2018-09-20T13:15:24.533Z,8.47
2018-09-20T13:17:59.999Z,4.00
2018-09-20T13:20:36.754Z,7.10
2018-09-20T13:23:09.724Z,11.60
2018-09-20T13:25:43.609Z,6.50
2018-09-20T13:28:18.261Z,13.27
2018-09-20T13:30:54.528Z,9.03
2018-09-20T13:33:30.128Z,8.60
2018-09-20T13:36:02.821Z,8.43
2018-09-20T13:38:38.498Z,9.63
2018-09-20T13:41:16.754Z,9.57
2018-09-20T13:43:50.980Z,5.27
2018-09-20T13:46:24.143Z,9.93
2018-09-20T13:48:56.705Z,5.87
2018-09-20T13:51:32.753Z,6.97
2018-09-20T13:54:07.054Z,6.87
2018-09-20T13:56:40.742Z,10.13
2018-09-20T13:59:17.189Z,5.57
2018-09-20T14:01:51.058Z,8.27
2018-09-20T14:04:23.690Z,6.50
2018-09-20T14:06:57.089Z,8.00
2018-09-20T14:09:33.452Z,7.10
2018-09-20T14:12:08.974Z,8.43
2018-09-20T14:14:43.068Z,8.63
2018-09-20T14:17:16.784Z,9.73
2018-09-20T14:19:52.309Z,6.12
2018-09-20T14:22:28.814Z,11.30
2018-09-20T14:25:03.616Z,7.93
2018-09-20T14:27:36.281Z,6.60
2018-09-20T14:30:12.796Z,7.47
2018-09-20T14:32:48.651Z,8.93
2018-09-20T14:35:25.916Z,8.00
2018-09-20T14:38:09.591Z,6.53
2018-09-20T14:40:42.999Z,9.20
2018-09-20T14:43:20.360Z,6.13
2018-09-20T14:45:54.409Z,8.43
2018-09-20T14:48:30.173Z,10.30
2018-09-20T14:51:05.256Z,6.73
2018-09-20T14:53:41.362Z,5.17
2018-09-20T14:56:20.703Z,6.20
2018-09-20T14:58:55.217Z,8.05
2018-09-20T15:01:29.628Z,9.50
2018-09-20T15:04:02.178Z,4.00
2018-09-20T15:06:34.757Z,9.00
2018-09-20T15:09:12.628Z,4.93
2018-09-20T15:11:46.856Z,6.17
2018-09-20T15:14:23.475Z,6.93
2018-09-20T15:16:58.386Z,5.77
2018-09-20T15:19:34.240Z,6.17
2018-09-20T15:22:07.664Z,5.20
2018-09-20T15:24:44.821Z,2.83
2018-09-20T15:27:19.016Z,6.03
2018-09-20T15:30:00.282Z,7.17
2018-09-20T15:32:38.058Z,5.53
2018-09-20T15:35:18.622Z,7.47
2018-09-20T15:38:01.569Z,6.97
2018-09-20T15:40:40.136Z,6.50
2018-09-20T15:43:15.105Z,8.93
2018-09-20T15:45:51.251Z,4.97
2018-09-20T15:48:29.033Z,5.90
2018-09-20T15:51:01.714Z,5.37
2018-09-20T15:53:34.671Z,5.13
2018-09-20T15:56:09.167Z,5.17
2018-09-20T15:58:41.880Z,5.00
2018-09-20T16:01:17.309Z,8.23
2018-09-20T16:03:52.496Z,6.90
2018-09-20T16:06:27.984Z,5.57
2018-09-20T16:09:09.192Z,4.60
2018-09-20T16:11:43.682Z,4.77
2018-09-20T16:14:16.266Z,7.33
2018-09-20T16:16:49.833Z,6.93
2018-09-20T16:19:23.241Z,7.23
2018-09-20T16:21:56.555Z,5.23
2018-09-20T16:24:30.081Z,7.27
2018-09-20T16:27:03.414Z,6.32
2018-09-20T16:30:17.722Z,7.20
2018-09-20T16:33:45.476Z,9.93
2018-09-20T16:36:52.185Z,4.63
2018-09-20T16:39:28.632Z,4.35
2018-09-20T16:42:07.289Z,4.17
2018-09-20T16:44:42.162Z,6.40
2018-09-20T16:47:15.324Z,6.87
2018-09-20T16:49:48.945Z,5.37
2018-09-20T16:52:21.765Z,5.73
2018-09-20T16:54:56.254Z,5.60
2018-09-20T16:57:28.884Z,5.47
2018-09-20T17:00:09.944Z,5.93
2018-09-20T17:02:45.734Z,4.23
2018-09-20T17:05:21.791Z,4.77
2018-09-20T17:07:55.407Z,6.50
2018-09-20T17:10:29.639Z,6.00
2018-09-20T17:13:03.538Z,3.47
2018-09-20T17:15:38.016Z,5.75
2018-09-20T17:18:12.605Z,4.60
2018-09-20T17:20:45.716Z,5.17
2018-09-20T17:23:20.559Z,8.93
2018-09-20T17:25:58.546Z,6.43
2018-09-20T17:28:34.717Z,5.50
2018-09-20T17:31:10.229Z,6.00
2018-09-20T17:33:55.215Z,5.30
2018-09-20T17:36:53.949Z,5.87
2018-09-20T17:40:04.244Z,8.20
2018-09-20T17:42:50.797Z,6.50
2018-09-20T17:45:39.168Z,3.57
2018-09-20T17:48:35.912Z,6.90
2018-09-20T17:51:23.036Z,8.47
2018-09-20T17:54:10.112Z,4.67
2018-09-20T17:57:12.982Z,4.07
2018-09-20T18:00:21.222Z,4.53
2018-09-20T18:02:57.672Z,6.57
2018-09-20T18:05:32.732Z,6.23
2018-09-20T18:08:13.106Z,8.02
2018-09-20T18:10:49.293Z,8.13
2018-09-20T18:13:24.360Z,5.03
2018-09-20T18:15:57.821Z,6.93
2018-09-20T18:18:31.337Z,3.80
2018-09-20T18:21:09.847Z,5.57
2018-09-20T18:23:43.509Z,3.47
2018-09-20T18:26:16.191Z,6.57
2018-09-20T18:28:48.792Z,6.67
2018-09-20T18:31:22.349Z,6.32
2018-09-20T18:33:55.335Z,8.53
2018-09-20T18:36:27.975Z,7.97
2018-09-20T18:39:03.829Z,6.13
2018-09-20T18:41:44.451Z,7.53
2018-09-20T18:44:20.285Z,7.77
2018-09-20T18:46:53.859Z,4.77
2018-09-20T18:49:26.705Z,10.13
2018-09-20T18:52:00.033Z,7.13
2018-09-20T18:54:35.241Z,6.83
2018-09-20T18:57:09.645Z,5.33
2018-09-20T18:59:42.819Z,6.10
2018-09-20T19:02:17.317Z,5.05
2018-09-20T19:04:51.094Z,4.80
2018-09-20T19:07:23.604Z,6.07
2018-09-20T19:09:59.935Z,9.13
2018-09-20T19:12:34.573Z,4.67
2018-09-20T19:15:13.899Z,10.83
2018-09-20T19:17:48.987Z,4.23
2018-09-20T19:20:24.445Z,10.87
2018-09-20T19:23:00.033Z,6.50
2018-09-20T19:25:37.428Z,6.83
2018-09-20T19:28:11.669Z,8.18
2018-09-20T19:30:49.369Z,5.13
2018-09-20T19:33:26.612Z,5.50
2018-09-20T19:36:03.874Z,6.73
2018-09-20T19:38:39.889Z,6.20
2018-09-20T19:41:13.584Z,6.43
2018-09-20T19:43:47.932Z,8.83
2018-09-20T19:46:21.917Z,7.07
2018-09-20T19:48:55.948Z,7.65
2018-09-20T19:51:28.809Z,7.90
2018-09-20T19:54:06.982Z,7.80
2018-09-20T19:56:42.766Z,6.87
2018-09-20T19:59:19.341Z,6.97
2018-09-20T20:01:53.336Z,4.93
2018-09-20T20:04:29.747Z,7.10
2018-09-20T20:07:03.760Z,9.37
2018-09-20T20:09:36.891Z,6.07
2018-09-20T20:12:21.725Z,5.10
2018-09-20T20:14:55.861Z,6.87
2018-09-20T20:17:29.870Z,10.07
2018-09-20T20:20:04.824Z,4.63
2018-09-20T20:23:09.552Z,6.00
2018-09-20T20:25:46.410Z,8.03
2018-09-20T20:28:19.389Z,5.67
2018-09-20T20:30:53.820Z,4.73
2018-09-20T20:33:26.816Z,7.73
2018-09-20T20:36:06.795Z,9.77
2018-09-20T20:38:41.292Z,5.00
2018-09-20T20:41:16.072Z,10.80
2018-09-20T20:43:49.886Z,10.80
2018-09-20T20:46:24.601Z,6.47
2018-09-20T20:48:57.239Z,13.00
2018-09-20T20:51:31.263Z,5.77
2018-09-20T20:54:06.036Z,4.77
2018-09-20T20:56:39.032Z,7.27
2018-09-20T20:59:13.728Z,7.60
2018-09-20T21:01:46.302Z,8.37
2018-09-20T21:04:27.265Z,4.87
2018-09-20T21:07:02.975Z,5.13
2018-09-20T21:09:46.530Z,7.03
2018-09-20T21:12:25.985Z,6.12
2018-09-20T21:15:04.649Z,6.87
2018-09-20T21:17:41.393Z,10.27
2018-09-20T21:20:14.196Z,5.30
2018-09-20T21:22:47.479Z,6.60
2018-09-20T21:25:20.041Z,5.57
2018-09-20T21:27:54.331Z,5.30
2018-09-20T21:30:29.328Z,8.27
2018-09-20T21:33:03.442Z,4.67
2018-09-20T21:35:40.563Z,6.85
2018-09-20T21:38:15.606Z,11.13
2018-09-20T21:40:52.626Z,6.10
2018-09-20T21:43:25.293Z,7.30
2018-09-20T21:45:59.937Z,9.17
2018-09-20T21:48:33.933Z,5.60
2018-09-20T21:51:22.448Z,10.03
2018-09-20T21:53:55.620Z,9.30
2018-09-20T21:56:31.720Z,8.20
2018-09-20T21:59:06.994Z,7.87
2018-09-20T22:01:46.644Z,5.77
2018-09-20T22:04:19.154Z,6.40
2018-09-20T22:06:52.637Z,4.70
2018-09-20T22:09:25.491Z,7.67
2018-09-20T22:11:59.584Z,6.67
2018-09-20T22:14:35.464Z,7.40
2018-09-20T22:17:12.100Z,7.67
2018-09-20T22:19:46.089Z,6.40
2018-09-20T22:22:18.789Z,8.23
2018-09-20T22:24:54.854Z,6.03
2018-09-20T22:27:28.279Z,7.50
2018-09-20T22:30:02.957Z,8.87
2018-09-20T22:32:36.811Z,4.13
2018-09-20T22:35:11.541Z,7.70
2018-09-20T22:37:47.144Z,4.90
2018-09-20T22:40:19.932Z,5.95
2018-09-20T22:42:55.776Z,7.33
2018-09-20T22:45:29.642Z,5.37
2018-09-20T22:48:03.564Z,6.45
2018-09-20T22:50:37.504Z,8.68
2018-09-20T22:53:10.393Z,5.70
2018-09-20T22:55:43.529Z,9.00
2018-09-20T22:58:16.603Z,7.50
2018-09-20T23:00:52.133Z,7.25
2018-09-20T23:03:24.821Z,12.90
2018-09-20T23:05:57.760Z,9.30
2018-09-20T23:08:30.304Z,5.57
2018-09-20T23:11:04.020Z,8.10
2018-09-20T23:13:38.829Z,4.87
2018-09-20T23:16:13.732Z,5.70
2018-09-20T23:18:46.473Z,8.47
2018-09-20T23:21:21.740Z,8.30
2018-09-20T23:23:56.641Z,9.87
2018-09-20T23:26:30.041Z,7.03
2018-09-20T23:29:04.780Z,9.17
2018-09-20T23:31:37.432Z,5.80
2018-09-20T23:34:10.047Z,7.63
2018-09-20T23:36:42.887Z,7.07
2018-09-20T23:39:15.472Z,10.23
2018-09-20T23:41:47.984Z,7.53
2018-09-20T23:44:22.051Z,5.83
2018-09-20T23:46:54.581Z,6.40
2018-09-20T23:49:27.276Z,7.43
2018-09-20T23:52:00.305Z,4.93
2018-09-20T23:54:32.976Z,6.60
2018-09-20T23:57:06.296Z,9.23
2018-09-20T23:59:40.377Z,9.37
